createdAt,value
2023-02-12T00:01:12.618Z,25.75
2023-02-12T00:03:39.913Z,28.48
2023-02-12T00:06:08.078Z,26.83
2023-02-12T00:08:34.918Z,27.33
2023-02-12T00:11:14.884Z,29.27
2023-02-12T00:13:41.868Z,29.92
2023-02-12T00:16:11.042Z,28.38
2023-02-12T00:18:37.782Z,26.67
2023-02-12T00:21:05.253Z,24.65
2023-02-12T00:23:32.271Z,24.20
2023-02-12T00:25:58.852Z,24.52
2023-02-12T00:28:25.611Z,24.42
2023-02-12T00:30:52.416Z,25.27
2023-02-12T00:33:19.019Z,24.05
2023-02-12T00:35:45.633Z,27.35
2023-02-12T00:38:12.278Z,25.42
2023-02-12T00:40:38.881Z,26.60
2023-02-12T00:43:05.939Z,27.88
2023-02-12T00:45:32.494Z,26.75
2023-02-12T00:47:59.019Z,26.73
2023-02-12T00:50:25.661Z,27.58
2023-02-12T00:52:52.228Z,26.00
2023-02-12T00:55:19.124Z,27.67
2023-02-12T00:57:45.707Z,25.40
2023-02-12T01:00:13.538Z,25.63
2023-02-12T01:02:40.072Z,25.48
2023-02-12T01:05:06.762Z,26.67
2023-02-12T01:07:33.313Z,25.77
2023-02-12T01:10:01.975Z,26.38
2023-02-12T01:12:28.521Z,26.70
2023-02-12T01:14:55.082Z,25.95
2023-02-12T01:17:21.674Z,28.23
2023-02-12T01:19:48.444Z,27.52
2023-02-12T01:22:15.105Z,26.58
2023-02-12T01:24:41.646Z,26.02
2023-02-12T01:27:08.268Z,26.52
2023-02-12T01:29:34.791Z,24.52
2023-02-12T01:32:01.401Z,23.45
2023-02-12T01:34:28.041Z,25.00
2023-02-12T01:36:54.596Z,23.15
2023-02-12T01:39:21.244Z,23.67
2023-02-12T01:41:47.739Z,23.20
2023-02-12T01:44:25.508Z,23.35
2023-02-12T01:46:57.675Z,24.50
2023-02-12T01:49:47.112Z,23.60
2023-02-12T01:52:24.841Z,22.52
2023-02-12T01:54:55.031Z,24.25
2023-02-12T01:57:24.595Z,23.20
2023-02-12T01:59:54.564Z,23.73
2023-02-12T02:02:21.144Z,23.55
2023-02-12T02:04:55.517Z,21.33
2023-02-12T02:07:22.151Z,23.55
2023-02-12T02:09:49.040Z,23.55
2023-02-12T02:12:34.402Z,23.42
2023-02-12T02:15:03.006Z,24.13
2023-02-12T02:17:32.634Z,25.27
2023-02-12T02:20:36.516Z,24.95
2023-02-12T02:23:45.302Z,24.95
2023-02-12T02:26:22.911Z,23.65
2023-02-12T02:29:17.303Z,24.88
2023-02-12T02:32:00.845Z,24.42
2023-02-12T02:34:46.263Z,25.88
2023-02-12T02:37:31.344Z,25.52
2023-02-12T02:40:16.067Z,25.05
2023-02-12T02:42:58.436Z,25.63
2023-02-12T02:45:38.136Z,24.60
2023-02-12T02:48:33.379Z,23.17
2023-02-12T02:51:06.615Z,24.67
2023-02-12T02:53:38.574Z,25.35
2023-02-12T02:56:08.763Z,25.40
2023-02-12T02:58:41.050Z,27.13
2023-02-12T03:01:17.951Z,25.45
2023-02-12T03:04:01.237Z,23.05
2023-02-12T03:06:34.368Z,24.40
2023-02-12T03:09:06.538Z,23.05
2023-02-12T03:11:34.248Z,24.77
2023-02-12T03:14:12.176Z,24.40
2023-02-12T03:16:48.100Z,25.30
2023-02-12T03:19:20.481Z,24.15
2023-02-12T03:21:53.583Z,24.77
2023-02-12T03:24:27.668Z,24.85
2023-02-12T03:27:06.157Z,25.90
2023-02-12T03:29:32.760Z,25.38
2023-02-12T03:32:14.120Z,25.27
2023-02-12T03:35:08.622Z,25.15
2023-02-12T03:37:40.546Z,23.55
2023-02-12T03:40:20.815Z,23.77
2023-02-12T03:43:12.411Z,22.75
2023-02-12T03:45:49.808Z,22.92
2023-02-12T03:48:41.121Z,23.20
2023-02-12T03:51:20.489Z,23.60
2023-02-12T03:53:47.685Z,23.50
2023-02-12T03:56:18.972Z,23.60
2023-02-12T03:58:45.987Z,22.40
2023-02-12T04:01:13.492Z,22.08
2023-02-12T04:03:41.037Z,23.55
2023-02-12T04:06:23.506Z,23.20
2023-02-12T04:08:50.143Z,23.45
2023-02-12T04:11:30.797Z,22.48
2023-02-12T04:14:21.638Z,22.73
2023-02-12T04:17:08.907Z,21.10
2023-02-12T04:20:03.009Z,22.67
2023-02-12T04:22:40.031Z,22.30
2023-02-12T04:25:52.138Z,23.85
2023-02-12T04:28:47.917Z,23.95
2023-02-12T04:31:30.940Z,24.17
2023-02-12T04:34:18.566Z,24.08
2023-02-12T04:37:15.860Z,21.90
2023-02-12T04:39:44.159Z,23.58
2023-02-12T04:42:11.271Z,23.30
2023-02-12T04:44:40.491Z,21.70
2023-02-12T04:47:07.069Z,22.67
2023-02-12T04:49:33.818Z,21.67
2023-02-12T04:52:00.409Z,23.02
2023-02-12T04:54:27.040Z,22.50
2023-02-12T04:56:53.567Z,22.38
2023-02-12T04:59:20.152Z,21.58
2023-02-12T05:01:46.986Z,22.20
2023-02-12T05:04:15.768Z,21.90
2023-02-12T05:06:44.101Z,21.73
2023-02-12T05:09:14.364Z,19.63
2023-02-12T05:11:41.035Z,21.40
2023-02-12T05:14:07.577Z,22.27
2023-02-12T05:16:34.194Z,21.05
2023-02-12T05:19:00.730Z,20.98
2023-02-12T05:21:27.333Z,21.02
2023-02-12T05:23:53.892Z,20.27
2023-02-12T05:26:21.927Z,21.70
2023-02-12T05:28:48.637Z,20.65
2023-02-12T05:31:21.029Z,19.45
2023-02-12T05:33:49.203Z,20.38
2023-02-12T05:36:18.933Z,19.50
2023-02-12T05:38:45.648Z,20.38
2023-02-12T05:41:17.395Z,20.52
2023-02-12T05:43:44.134Z,21.10
2023-02-12T05:46:11.425Z,20.98
2023-02-12T05:48:38.635Z,21.67
2023-02-12T05:51:08.484Z,23.33
2023-02-12T05:53:36.017Z,23.80
2023-02-12T05:56:20.405Z,22.23
2023-02-12T05:58:51.558Z,22.10
2023-02-12T06:01:22.606Z,23.15
2023-02-12T06:03:49.239Z,22.20
2023-02-12T06:06:15.783Z,21.67
2023-02-12T06:08:42.339Z,22.60
2023-02-12T06:11:13.235Z,21.98
2023-02-12T06:13:40.179Z,22.98
2023-02-12T06:16:07.196Z,23.05
2023-02-12T06:18:36.844Z,23.85
2023-02-12T06:21:04.341Z,24.33
2023-02-12T06:23:30.945Z,24.85
2023-02-12T06:25:58.125Z,26.13
2023-02-12T06:28:25.160Z,24.50
2023-02-12T06:30:51.801Z,25.75
2023-02-12T06:33:18.359Z,24.70
2023-02-12T06:35:45.148Z,25.45
2023-02-12T06:38:11.724Z,25.15
2023-02-12T06:40:38.358Z,25.98
2023-02-12T06:43:04.974Z,27.63
2023-02-12T06:45:31.618Z,25.75
2023-02-12T06:47:58.176Z,28.33
2023-02-12T06:50:24.858Z,27.33
2023-02-12T06:52:51.532Z,29.58
2023-02-12T06:55:18.195Z,29.20
2023-02-12T06:57:44.884Z,27.92
2023-02-12T07:00:12.276Z,30.40
2023-02-12T07:02:39.185Z,34.40
2023-02-12T07:05:06.125Z,34.45
2023-02-12T07:07:33.444Z,32.10
2023-02-12T07:10:00.171Z,32.58
2023-02-12T07:12:27.114Z,31.95
2023-02-12T07:14:53.917Z,33.13
2023-02-12T07:17:20.523Z,32.03
2023-02-12T07:19:47.136Z,33.13
2023-02-12T07:22:13.822Z,33.30
2023-02-12T07:24:40.398Z,34.20
2023-02-12T07:27:07.063Z,32.53
2023-02-12T07:29:33.792Z,33.00
2023-02-12T07:32:00.918Z,34.53
2023-02-12T07:34:27.577Z,34.17
2023-02-12T07:36:54.156Z,34.75
2023-02-12T07:39:20.750Z,33.53
2023-02-12T07:41:47.315Z,36.30
2023-02-12T07:44:13.954Z,37.60
2023-02-12T07:46:44.955Z,44.28
2023-02-12T07:49:15.318Z,46.05
2023-02-12T07:51:42.396Z,44.17
2023-02-12T07:54:10.028Z,45.88
2023-02-12T07:56:38.963Z,42.35
2023-02-12T07:59:08.111Z,40.67
2023-02-12T08:01:37.665Z,39.25
2023-02-12T08:04:07.468Z,44.88
2023-02-12T08:06:36.657Z,42.25
2023-02-12T08:09:06.991Z,41.65
2023-02-12T08:11:33.807Z,43.83
2023-02-12T08:14:01.739Z,43.30
2023-02-12T08:16:29.240Z,44.72
2023-02-12T08:19:00.670Z,45.78
2023-02-12T08:21:34.277Z,46.80
2023-02-12T08:24:00.991Z,46.05
2023-02-12T08:26:38.866Z,49.25
2023-02-12T08:29:12.347Z,47.92
2023-02-12T08:31:44.319Z,45.72
2023-02-12T08:34:33.099Z,46.83
2023-02-12T08:37:04.199Z,46.35
2023-02-12T08:39:37.982Z,44.67
2023-02-12T08:42:07.410Z,47.15
2023-02-12T08:44:33.940Z,45.42
2023-02-12T08:47:03.847Z,42.90
2023-02-12T08:49:30.658Z,48.53
2023-02-12T08:52:01.999Z,47.67
2023-02-12T08:54:31.136Z,49.10
2023-02-12T08:57:00.163Z,50.22
2023-02-12T08:59:27.326Z,48.58
2023-02-12T09:01:54.984Z,48.60
2023-02-12T09:04:25.078Z,50.42
2023-02-12T09:06:53.382Z,45.45
2023-02-12T09:09:20.733Z,46.50
2023-02-12T09:11:47.910Z,48.28
2023-02-12T09:14:16.547Z,48.28
2023-02-12T09:16:43.440Z,43.95
2023-02-12T09:19:12.748Z,46.38
2023-02-12T09:21:39.323Z,44.33
2023-02-12T09:24:05.971Z,47.97
2023-02-12T09:26:32.613Z,46.13
2023-02-12T09:29:01.184Z,46.90
2023-02-12T09:31:29.590Z,51.00
2023-02-12T09:34:00.097Z,47.92
2023-02-12T09:36:26.921Z,50.28
2023-02-12T09:38:57.250Z,51.85
2023-02-12T09:41:33.776Z,47.88
2023-02-12T09:44:44.918Z,53.15
2023-02-12T09:47:23.824Z,53.92
2023-02-12T09:50:26.879Z,50.80
2023-02-12T09:52:56.851Z,50.17
2023-02-12T09:55:27.800Z,54.45
2023-02-12T09:57:55.071Z,48.35
2023-02-12T10:00:28.620Z,52.58
2023-02-12T10:02:55.668Z,50.85
2023-02-12T10:05:38.908Z,49.75
2023-02-12T10:08:28.947Z,50.95
2023-02-12T10:11:19.998Z,51.45
2023-02-12T10:14:01.620Z,51.10
2023-02-12T10:16:55.663Z,52.17
2023-02-12T10:19:42.455Z,52.13
2023-02-12T10:22:24.549Z,53.35
2023-02-12T10:25:44.466Z,52.67
2023-02-12T10:28:21.209Z,49.63
2023-02-12T10:31:00.334Z,45.80
2023-02-12T10:33:57.104Z,47.15
2023-02-12T10:36:39.662Z,45.47
2023-02-12T10:39:14.094Z,45.15
2023-02-12T10:41:49.734Z,47.97
2023-02-12T10:44:16.355Z,48.53
2023-02-12T10:46:43.033Z,46.97
2023-02-12T10:49:14.807Z,46.03
2023-02-12T10:52:02.098Z,45.72
2023-02-12T10:54:44.272Z,44.90
2023-02-12T10:57:31.255Z,44.83
2023-02-12T11:00:31.270Z,45.03
2023-02-12T11:03:06.917Z,43.10
2023-02-12T11:05:36.082Z,42.22
2023-02-12T11:08:03.400Z,41.13
2023-02-12T11:10:33.471Z,42.67
2023-02-12T11:13:01.848Z,42.30
2023-02-12T11:15:47.697Z,43.28
2023-02-12T11:18:26.547Z,41.70
2023-02-12T11:21:08.708Z,40.95
2023-02-12T11:23:43.401Z,40.45
2023-02-12T11:26:19.116Z,41.30
2023-02-12T11:29:18.257Z,39.13
2023-02-12T11:32:03.483Z,37.75
2023-02-12T11:34:30.437Z,38.25
2023-02-12T11:36:57.910Z,36.92
2023-02-12T11:39:32.430Z,37.95
2023-02-12T11:42:00.781Z,40.65
2023-02-12T11:44:35.977Z,41.35
2023-02-12T11:49:42.682Z,34.47
2023-02-12T11:54:48.305Z,36.63
2023-02-12T11:57:38.044Z,35.13
2023-02-12T12:00:19.948Z,32.70
2023-02-12T12:03:21.907Z,33.08
2023-02-12T12:05:52.042Z,33.88
2023-02-12T12:08:43.962Z,31.75
2023-02-12T12:11:19.757Z,32.63
2023-02-12T12:14:18.045Z,34.10
2023-02-12T12:17:21.606Z,32.47
2023-02-12T12:20:13.318Z,32.25
2023-02-12T12:22:58.724Z,32.17
2023-02-12T12:25:27.261Z,36.95
2023-02-12T12:28:08.022Z,38.63
2023-02-12T12:30:54.034Z,38.10
2023-02-12T12:33:37.067Z,35.95
2023-02-12T12:36:28.782Z,39.85
2023-02-12T12:38:58.057Z,38.83
2023-02-12T12:42:01.871Z,37.35
2023-02-12T12:44:41.986Z,35.80
2023-02-12T12:47:21.949Z,34.15
2023-02-12T12:50:19.301Z,35.85
2023-02-12T12:52:54.776Z,34.80
2023-02-12T12:56:02.622Z,32.40
2023-02-12T12:58:37.040Z,33.05
2023-02-12T13:01:37.072Z,30.27
2023-02-12T13:04:27.822Z,27.52
2023-02-12T13:07:16.144Z,27.33
2023-02-12T13:10:08.827Z,25.77
2023-02-12T13:12:54.240Z,24.27
2023-02-12T13:15:45.767Z,22.45
2023-02-12T13:18:27.097Z,20.65
2023-02-12T13:21:15.371Z,20.83
2023-02-12T13:24:02.416Z,20.25
2023-02-12T13:26:46.412Z,19.73
2023-02-12T13:29:19.375Z,19.45
2023-02-12T13:31:53.124Z,20.42
2023-02-12T13:34:21.765Z,19.02
2023-02-12T13:36:49.783Z,18.52
2023-02-12T13:39:34.906Z,18.90
2023-02-12T13:42:24.412Z,19.15
2023-02-12T13:45:01.287Z,20.55
2023-02-12T13:48:08.464Z,20.55
2023-02-12T13:50:44.623Z,20.52
2023-02-12T13:53:36.837Z,20.77
2023-02-12T13:56:16.162Z,21.90
2023-02-12T13:58:54.019Z,21.45
2023-02-12T14:01:49.376Z,19.50
2023-02-12T14:04:24.551Z,17.35
2023-02-12T14:07:14.897Z,16.50
2023-02-12T14:09:47.351Z,18.02
2023-02-12T14:12:25.590Z,17.73
2023-02-12T14:14:55.022Z,16.70
2023-02-12T14:17:30.850Z,17.83
2023-02-12T14:20:25.448Z,17.63
2023-02-12T14:22:51.928Z,18.05
2023-02-12T14:25:24.514Z,17.30
2023-02-12T14:28:06.378Z,16.88
2023-02-12T14:30:40.540Z,17.30
2023-02-12T14:33:07.167Z,17.42
2023-02-12T14:35:39.353Z,18.83
2023-02-12T14:38:30.385Z,19.02
2023-02-12T14:41:38.704Z,16.60
2023-02-12T14:44:17.259Z,17.88
2023-02-12T14:46:49.767Z,18.08
2023-02-12T14:49:38.640Z,18.20
2023-02-12T14:52:12.298Z,17.33
2023-02-12T14:54:50.902Z,19.35
2023-02-12T14:57:28.137Z,19.33
2023-02-12T15:00:17.667Z,20.00
2023-02-12T15:02:53.222Z,19.55
2023-02-12T15:05:42.383Z,19.92
2023-02-12T15:08:37.142Z,18.20
2023-02-12T15:11:19.885Z,17.33
2023-02-12T15:13:56.982Z,17.15
2023-02-12T15:16:34.857Z,17.42
2023-02-12T15:19:20.067Z,17.33
2023-02-12T15:21:47.239Z,16.75
2023-02-12T15:24:21.815Z,17.25
2023-02-12T15:26:51.274Z,16.30
2023-02-12T15:29:22.620Z,15.80
2023-02-12T15:32:00.581Z,15.75
2023-02-12T15:34:38.792Z,15.50
2023-02-12T15:37:05.450Z,15.45
2023-02-12T15:39:38.962Z,15.32
2023-02-12T15:42:05.601Z,16.08
2023-02-12T15:44:34.695Z,16.92
2023-02-12T15:47:13.649Z,16.88
2023-02-12T15:49:42.134Z,17.17
2023-02-12T15:52:15.621Z,15.90
2023-02-12T15:54:44.748Z,18.85
2023-02-12T15:57:14.115Z,44.28
2023-02-12T15:59:43.807Z,19.42
2023-02-12T16:02:24.915Z,20.80
2023-02-12T16:04:53.706Z,19.58
2023-02-12T16:07:20.780Z,20.40
2023-02-12T16:09:49.756Z,19.42
2023-02-12T16:12:20.047Z,19.52
2023-02-12T16:14:55.281Z,19.50
2023-02-12T16:20:22.243Z,18.48
2023-02-12T16:22:50.496Z,20.40
2023-02-12T16:25:19.698Z,19.25
2023-02-12T16:28:31.625Z,18.23
2023-02-12T16:31:12.961Z,17.67
2023-02-12T16:33:39.445Z,19.55
2023-02-12T16:36:13.247Z,18.58
2023-02-12T16:38:45.188Z,19.58
2023-02-12T16:41:15.125Z,18.35
2023-02-12T16:43:41.811Z,19.50
2023-02-12T16:46:09.006Z,19.30
2023-02-12T16:48:44.727Z,19.98
2023-02-12T16:51:34.030Z,19.27
2023-02-12T16:54:02.832Z,18.08
2023-02-12T16:56:33.991Z,19.13
2023-02-12T16:59:01.761Z,19.27
2023-02-12T17:01:36.728Z,19.95
2023-02-12T17:04:14.854Z,19.08
2023-02-12T17:06:41.606Z,19.80
2023-02-12T17:09:09.438Z,20.05
2023-02-12T17:11:35.955Z,19.45
2023-02-12T17:14:02.498Z,18.98
2023-02-12T17:16:31.161Z,20.08
2023-02-12T17:18:59.735Z,18.65
2023-02-12T17:21:37.789Z,17.92
2023-02-12T17:24:14.980Z,16.27
2023-02-12T17:26:41.529Z,15.80
2023-02-12T17:29:08.055Z,14.85
2023-02-12T17:31:36.542Z,14.07
2023-02-12T17:34:03.939Z,12.85
2023-02-12T17:36:30.681Z,10.95
2023-02-12T17:38:57.222Z,12.02
2023-02-12T17:41:24.485Z,11.48
2023-02-12T17:43:51.254Z,10.00
2023-02-12T17:46:22.890Z,8.75
2023-02-12T17:48:49.450Z,9.25
2023-02-12T17:51:16.069Z,10.02
2023-02-12T17:53:42.885Z,9.43
2023-02-12T17:56:13.420Z,9.18
2023-02-12T17:58:41.587Z,9.20
2023-02-12T18:01:10.667Z,8.45
2023-02-12T18:03:37.873Z,8.23
2023-02-12T18:06:05.616Z,8.75
2023-02-12T18:08:32.231Z,8.43
2023-02-12T18:10:59.227Z,7.70
2023-02-12T18:13:25.903Z,8.23
2023-02-12T18:15:52.481Z,8.35
2023-02-12T18:18:19.107Z,8.45
2023-02-12T18:20:45.819Z,8.07
2023-02-12T18:23:12.414Z,8.18
2023-02-12T18:25:43.610Z,8.50
2023-02-12T18:28:11.313Z,8.80
2023-02-12T18:30:39.188Z,8.05
2023-02-12T18:33:06.380Z,8.65
2023-02-12T18:35:33.393Z,8.60
2023-02-12T18:37:59.956Z,8.98
2023-02-12T18:40:26.501Z,9.70
2023-02-12T18:42:53.084Z,8.27
2023-02-12T18:45:19.707Z,8.75
2023-02-12T18:47:46.380Z,8.82
2023-02-12T18:50:12.969Z,9.05
2023-02-12T18:52:39.688Z,9.70
2023-02-12T18:55:07.239Z,9.20
2023-02-12T18:57:33.876Z,10.10
2023-02-12T19:00:00.487Z,9.02
2023-02-12T19:02:27.157Z,8.88
2023-02-12T19:04:53.857Z,10.05
2023-02-12T19:07:20.565Z,11.02
2023-02-12T19:09:47.263Z,9.88
2023-02-12T19:12:13.943Z,10.07
2023-02-12T19:14:40.526Z,8.98
2023-02-12T19:17:07.119Z,10.82
2023-02-12T19:19:33.674Z,10.20
2023-02-12T19:22:00.216Z,10.60
2023-02-12T19:24:37.682Z,10.30
2023-02-12T19:27:11.201Z,10.25
2023-02-12T19:29:37.740Z,13.63
2023-02-12T19:32:04.500Z,11.75
2023-02-12T19:34:31.070Z,10.30
2023-02-12T19:36:57.622Z,10.88
2023-02-12T19:39:24.746Z,9.80
2023-02-12T19:41:51.914Z,10.15
2023-02-12T19:44:23.909Z,9.75
2023-02-12T19:46:51.642Z,10.40
2023-02-12T19:49:21.389Z,11.18
2023-02-12T19:51:48.801Z,10.00
2023-02-12T19:54:17.312Z,10.10
2023-02-12T19:56:44.171Z,10.02
2023-02-12T19:59:13.556Z,11.25
2023-02-12T20:01:40.186Z,10.00
2023-02-12T20:04:06.760Z,11.10
2023-02-12T20:06:36.180Z,12.40
2023-02-12T20:09:04.467Z,11.30
2023-02-12T20:11:32.763Z,11.60
2023-02-12T20:14:01.362Z,10.80
2023-02-12T20:16:33.451Z,10.63
2023-02-12T20:19:25.272Z,11.23
2023-02-12T20:21:55.167Z,10.82
2023-02-12T20:24:24.369Z,12.70
2023-02-12T20:26:51.569Z,11.52
2023-02-12T20:29:18.271Z,12.95
2023-02-12T20:31:45.362Z,15.00
2023-02-12T20:34:14.314Z,16.00
2023-02-12T20:36:42.607Z,13.98
2023-02-12T20:39:11.255Z,11.73
2023-02-12T20:41:38.089Z,12.65
2023-02-12T20:44:06.974Z,13.13
2023-02-12T20:46:36.032Z,11.75
2023-02-12T20:49:02.912Z,12.77
2023-02-12T20:51:29.486Z,12.95
2023-02-12T20:53:56.206Z,13.20
2023-02-12T20:56:25.531Z,13.48
2023-02-12T20:58:53.110Z,12.52
2023-02-12T21:01:21.408Z,13.73
2023-02-12T21:03:49.466Z,14.35
2023-02-12T21:06:16.207Z,14.80
2023-02-12T21:08:43.048Z,14.60
2023-02-12T21:11:15.178Z,14.48
2023-02-12T21:13:58.755Z,14.70
2023-02-12T21:16:38.624Z,14.05
2023-02-12T21:19:05.214Z,13.80
2023-02-12T21:21:34.459Z,13.02
2023-02-12T21:24:05.445Z,11.93
2023-02-12T21:26:36.428Z,10.30
2023-02-12T21:29:04.191Z,9.93
2023-02-12T21:31:33.656Z,9.60
2023-02-12T21:34:01.902Z,9.68
2023-02-12T21:36:34.357Z,9.40
2023-02-12T21:39:01.254Z,8.73
2023-02-12T21:41:31.153Z,9.77
2023-02-12T21:44:01.263Z,9.80
2023-02-12T21:46:28.916Z,9.13
2023-02-12T21:48:56.203Z,8.70
2023-02-12T21:51:28.175Z,9.15
2023-02-12T21:53:58.803Z,9.75
2023-02-12T21:56:26.756Z,8.88
2023-02-12T21:58:53.809Z,8.63
2023-02-12T22:01:26.122Z,9.30
2023-02-12T22:03:53.749Z,9.52
2023-02-12T22:06:22.281Z,10.07
2023-02-12T22:08:49.823Z,9.27
2023-02-12T22:11:16.777Z,9.93
2023-02-12T22:13:43.549Z,9.70
2023-02-12T22:16:15.680Z,8.45
2023-02-12T22:18:43.689Z,9.10
2023-02-12T22:21:13.450Z,9.68
2023-02-12T22:23:41.015Z,8.52
2023-02-12T22:26:15.941Z,9.25
2023-02-12T22:28:47.535Z,8.35
2023-02-12T22:31:21.804Z,7.55
2023-02-12T22:33:49.777Z,7.57
2023-02-12T22:36:17.829Z,7.50
2023-02-12T22:38:44.636Z,6.88
2023-02-12T22:41:11.288Z,6.90
2023-02-12T22:43:39.873Z,6.97
2023-02-12T22:46:08.681Z,6.63
2023-02-12T22:48:35.597Z,6.43
2023-02-12T22:51:09.330Z,6.82
2023-02-12T22:53:35.992Z,7.00
2023-02-12T22:56:04.868Z,7.85
2023-02-12T22:58:32.336Z,7.32
2023-02-12T23:01:03.787Z,7.30
2023-02-12T23:03:31.824Z,6.93
2023-02-12T23:06:01.918Z,6.88
2023-02-12T23:08:28.552Z,7.40
2023-02-12T23:10:55.677Z,7.50
2023-02-12T23:13:29.579Z,7.45
2023-02-12T23:15:57.301Z,8.13
2023-02-12T23:18:24.127Z,8.10
2023-02-12T23:20:52.436Z,8.00
2023-02-12T23:23:20.075Z,8.18
2023-02-12T23:25:46.996Z,8.30
2023-02-12T23:28:13.877Z,8.13
2023-02-12T23:30:40.618Z,7.88
2023-02-12T23:33:07.327Z,8.00
2023-02-12T23:35:34.313Z,8.30
2023-02-12T23:38:01.134Z,8.35
2023-02-12T23:40:27.869Z,9.20
2023-02-12T23:42:54.598Z,9.60
2023-02-12T23:45:21.102Z,8.90
2023-02-12T23:47:47.641Z,8.88
2023-02-12T23:50:14.228Z,9.18
2023-02-12T23:52:40.812Z,8.45
2023-02-12T23:55:07.868Z,9.48
2023-02-12T23:57:35.136Z,8.75
